sensor_id;sensor_type;location;lat;lon;timestamp;pressure;altitude;pressure_sealevel;temperature;humidity
75455;BME280;64035;48.358;2.122;2022-12-29T00:01:19;99957.81;;;10.53;89.73
75455;BME280;64035;48.358;2.122;2022-12-29T00:02:58;99956.91;;;10.51;89.59
75455;BME280;64035;48.358;2.122;2022-12-29T00:04:36;99955.25;;;10.53;89.71
75455;BME280;64035;48.358;2.122;2022-12-29T00:06:14;99958.69;;;10.54;89.58
75455;BME280;64035;48.358;2.122;2022-12-29T00:07:53;99945.88;;;10.54;89.67
75455;BME280;64035;48.358;2.122;2022-12-29T00:09:31;99963.06;;;10.56;89.96
75455;BME280;64035;48.358;2.122;2022-12-29T00:11:23;99957.00;;;10.54;89.74
75455;BME280;64035;48.358;2.122;2022-12-29T00:13:01;99959.56;;;10.54;89.79
75455;BME280;64035;48.358;2.122;2022-12-29T00:14:58;99942.59;;;10.56;89.89
75455;BME280;64035;48.358;2.122;2022-12-29T00:16:55;99952.81;;;10.56;89.78
75455;BME280;64035;48.358;2.122;2022-12-29T00:18:33;99949.38;;;10.56;89.66
75455;BME280;64035;48.358;2.122;2022-12-29T00:20:11;99949.38;;;10.56;89.62
75455;BME280;64035;48.358;2.122;2022-12-29T00:22:10;99952.91;;;10.58;89.59
75455;BME280;64035;48.358;2.122;2022-12-29T00:24:25;99954.63;;;10.59;89.75
75455;BME280;64035;48.358;2.122;2022-12-29T00:26:03;99946.13;;;10.60;89.89
75455;BME280;64035;48.358;2.122;2022-12-29T00:28:00;99945.38;;;10.63;89.48
75455;BME280;64035;48.358;2.122;2022-12-29T00:29:57;99941.94;;;10.62;89.67
75455;BME280;64035;48.358;2.122;2022-12-29T00:31:54;99942.81;;;10.63;89.74
75455;BME280;64035;48.358;2.122;2022-12-29T00:33:51;99942.03;;;10.64;89.60
75455;BME280;64035;48.358;2.122;2022-12-29T00:35:54;99948.81;;;10.63;89.68
75455;BME280;64035;48.358;2.122;2022-12-29T00:37:44;99931.84;;;10.65;89.53
75455;BME280;64035;48.358;2.122;2022-12-29T00:39:42;99929.28;;;10.65;89.58
75455;BME280;64035;48.358;2.122;2022-12-29T00:41:39;99931.94;;;10.68;89.55
75455;BME280;64035;48.358;2.122;2022-12-29T00:43:36;99919.16;;;10.68;89.64
75455;BME280;64035;48.358;2.122;2022-12-29T00:45:33;99915.84;;;10.71;89.44
75455;BME280;64035;48.358;2.122;2022-12-29T00:47:11;99917.59;;;10.72;89.46
75455;BME280;64035;48.358;2.122;2022-12-29T00:48:49;99908.91;;;10.68;89.56
75455;BME280;64035;48.358;2.122;2022-12-29T00:50:46;99901.38;;;10.71;89.30
75455;BME280;64035;48.358;2.122;2022-12-29T00:52:23;99898.88;;;10.73;89.33
75455;BME280;64035;48.358;2.122;2022-12-29T00:54:02;99897.13;;;10.72;89.55
75455;BME280;64035;48.358;2.122;2022-12-29T00:55:40;99906.56;;;10.73;89.26
75455;BME280;64035;48.358;2.122;2022-12-29T00:57:18;99898.00;;;10.72;89.55
75455;BME280;64035;48.358;2.122;2022-12-29T00:59:00;99892.88;;;10.72;89.50
75455;BME280;64035;48.358;2.122;2022-12-29T01:00:39;99900.59;;;10.74;89.49
75455;BME280;64035;48.358;2.122;2022-12-29T01:02:17;99910.00;;;10.73;89.60
75455;BME280;64035;48.358;2.122;2022-12-29T01:03:56;99892.00;;;10.72;89.38
75455;BME280;64035;48.358;2.122;2022-12-29T01:05:37;99894.50;;;10.70;89.08
75455;BME280;64035;48.358;2.122;2022-12-29T01:07:15;99898.91;;;10.74;89.35
75455;BME280;64035;48.358;2.122;2022-12-29T01:08:56;99907.53;;;10.76;89.69
75455;BME280;64035;48.358;2.122;2022-12-29T01:11:03;99904.09;;;10.76;89.52
75455;BME280;64035;48.358;2.122;2022-12-29T01:12:42;99904.97;;;10.76;89.52
75455;BME280;64035;48.358;2.122;2022-12-29T01:14:23;99914.34;;;10.76;89.24
75455;BME280;64035;48.358;2.122;2022-12-29T01:16:02;99906.72;;;10.77;89.18
75455;BME280;64035;48.358;2.122;2022-12-29T01:17:40;99900.72;;;10.77;89.52
75455;BME280;64035;48.358;2.122;2022-12-29T01:19:18;99907.59;;;10.78;89.21
75455;BME280;64035;48.358;2.122;2022-12-29T01:21:05;99905.03;;;10.78;89.38
75455;BME280;64035;48.358;2.122;2022-12-29T01:22:43;99907.59;;;10.78;89.42
75455;BME280;64035;48.358;2.122;2022-12-29T01:24:21;99902.47;;;10.78;89.27
75455;BME280;64035;48.358;2.122;2022-12-29T01:26:14;99905.09;;;10.79;89.38
75455;BME280;64035;48.358;2.122;2022-12-29T01:27:52;99915.34;;;10.79;89.35
75455;BME280;64035;48.358;2.122;2022-12-29T01:29:30;99905.97;;;10.80;89.45
75455;BME280;64035;48.358;2.122;2022-12-29T01:31:09;99903.41;;;10.80;89.28
75455;BME280;64035;48.358;2.122;2022-12-29T01:32:48;99899.97;;;10.79;89.22
75455;BME280;64035;48.358;2.122;2022-12-29T01:34:26;99901.72;;;10.80;89.44
75455;BME280;64035;48.358;2.122;2022-12-29T01:36:07;99898.41;;;10.83;89.39
75455;BME280;64035;48.358;2.122;2022-12-29T01:37:46;99900.00;;;10.81;89.61
75455;BME280;64035;48.358;2.122;2022-12-29T01:39:25;99890.63;;;10.80;89.60
75455;BME280;64035;48.358;2.122;2022-12-29T01:41:04;99891.50;;;10.80;89.53
75455;BME280;64035;48.358;2.122;2022-12-29T01:42:42;99899.22;;;10.82;89.48
75455;BME280;64035;48.358;2.122;2022-12-29T01:46:34;99888.16;;;10.83;89.48
75455;BME280;64035;48.358;2.122;2022-12-29T01:48:14;99895.91;;;10.84;89.27
75455;BME280;64035;48.358;2.122;2022-12-29T01:49:56;99896.78;;;10.85;89.73
75455;BME280;64035;48.358;2.122;2022-12-29T01:51:39;99895.09;;;10.85;89.49
75455;BME280;64035;48.358;2.122;2022-12-29T01:53:24;99886.53;;;10.85;89.53
75455;BME280;64035;48.358;2.122;2022-12-29T01:55:05;99882.22;;;10.84;89.59
75455;BME280;64035;48.358;2.122;2022-12-29T01:56:45;99884.03;;;10.86;89.49
75455;BME280;64035;48.358;2.122;2022-12-29T01:58:27;99889.16;;;10.86;89.49
75455;BME280;64035;48.358;2.122;2022-12-29T02:00:10;99886.59;;;10.86;89.35
75455;BME280;64035;48.358;2.122;2022-12-29T02:01:52;99903.59;;;10.84;89.94
75455;BME280;64035;48.358;2.122;2022-12-29T02:03:30;99893.41;;;10.86;89.56
75455;BME280;64035;48.358;2.122;2022-12-29T02:05:18;99892.47;;;10.84;89.67
75455;BME280;64035;48.358;2.122;2022-12-29T02:07:01;99889.09;;;10.85;89.58
75455;BME280;64035;48.358;2.122;2022-12-29T02:08:42;99893.28;;;10.83;89.67
75455;BME280;64035;48.358;2.122;2022-12-29T02:10:26;99883.84;;;10.82;89.71
75455;BME280;64035;48.358;2.122;2022-12-29T02:12:05;99900.16;;;10.84;89.73
75455;BME280;64035;48.358;2.122;2022-12-29T02:13:44;99885.59;;;10.83;90.04
75455;BME280;64035;48.358;2.122;2022-12-29T02:15:35;99890.78;;;10.84;89.64
75455;BME280;64035;48.358;2.122;2022-12-29T02:36:40;99902.72;;;10.84;89.74
75455;BME280;64035;48.358;2.122;2022-12-29T02:38:54;99904.47;;;10.85;89.87
75455;BME280;64035;48.358;2.122;2022-12-29T02:40:42;99911.25;;;10.84;89.62
75455;BME280;64035;48.358;2.122;2022-12-29T02:46:45;99903.59;;;10.84;89.45
75455;BME280;64035;48.358;2.122;2022-12-29T02:48:41;99910.38;;;10.84;89.69
75455;BME280;64035;48.358;2.122;2022-12-29T02:50:22;99909.56;;;10.85;89.42
75455;BME280;64035;48.358;2.122;2022-12-29T02:52:10;99911.09;;;10.80;89.71
75455;BME280;64035;48.358;2.122;2022-12-29T02:53:52;99904.31;;;10.82;89.54
75455;BME280;64035;48.358;2.122;2022-12-29T02:55:49;99920.63;;;10.84;89.45
75455;BME280;64035;48.358;2.122;2022-12-29T02:57:34;99916.31;;;10.83;89.59
75455;BME280;64035;48.358;2.122;2022-12-29T02:59:13;99929.06;;;10.81;89.39
75455;BME280;64035;48.358;2.122;2022-12-29T03:01:28;99931.69;;;10.83;89.59
75455;BME280;64035;48.358;2.122;2022-12-29T03:03:35;99918.88;;;10.83;89.52
75455;BME280;64035;48.358;2.122;2022-12-29T03:07:32;99926.31;;;10.77;89.46
75455;BME280;64035;48.358;2.122;2022-12-29T03:09:20;99927.19;;;10.77;89.54
75455;BME280;64035;48.358;2.122;2022-12-29T03:11:04;99929.69;;;10.76;89.53
75455;BME280;64035;48.358;2.122;2022-12-29T03:14:59;99939.84;;;10.73;89.58
75455;BME280;64035;48.358;2.122;2022-12-29T03:17:07;99933.84;;;10.72;89.33
75455;BME280;64035;48.358;2.122;2022-12-29T03:20:43;99936.44;;;10.74;89.49
75455;BME280;64035;48.358;2.122;2022-12-29T03:22:29;99938.09;;;10.72;89.38
75455;BME280;64035;48.358;2.122;2022-12-29T03:24:16;99936.41;;;10.72;89.39
75455;BME280;64035;48.358;2.122;2022-12-29T03:25:57;99932.16;;;10.73;89.20
75455;BME280;64035;48.358;2.122;2022-12-29T03:27:50;99935.53;;;10.72;89.40
75455;BME280;64035;48.358;2.122;2022-12-29T03:29:36;99930.41;;;10.72;89.33
75455;BME280;64035;48.358;2.122;2022-12-29T03:31:19;99937.22;;;10.71;89.22
75455;BME280;64035;48.358;2.122;2022-12-29T03:33:02;99929.53;;;10.71;89.04
75455;BME280;64035;48.358;2.122;2022-12-29T03:34:43;99931.16;;;10.69;88.91
75455;BME280;64035;48.358;2.122;2022-12-29T03:36:58;99941.31;;;10.68;88.76
75455;BME280;64035;48.358;2.122;2022-12-29T03:38:44;99932.72;;;10.66;88.79
75455;BME280;64035;48.358;2.122;2022-12-29T03:40:24;99936.97;;;10.65;89.01
75455;BME280;64035;48.358;2.122;2022-12-29T03:42:14;99921.47;;;10.62;89.16
75455;BME280;64035;48.358;2.122;2022-12-29T03:43:53;99942.75;;;10.61;89.09
75455;BME280;64035;48.358;2.122;2022-12-29T03:45:31;99934.28;;;10.62;89.23
75455;BME280;64035;48.358;2.122;2022-12-29T03:47:11;99929.91;;;10.60;89.15
75455;BME280;64035;48.358;2.122;2022-12-29T03:48:50;99929.91;;;10.60;89.06
75455;BME280;64035;48.358;2.122;2022-12-29T03:50:28;99935.91;;;10.60;88.89
75455;BME280;64035;48.358;2.122;2022-12-29T03:52:06;99945.31;;;10.61;88.82
75455;BME280;64035;48.358;2.122;2022-12-29T03:53:49;99952.91;;;10.58;89.02
75455;BME280;64035;48.358;2.122;2022-12-29T03:55:27;99946.09;;;10.59;88.89
75455;BME280;64035;48.358;2.122;2022-12-29T03:57:05;99946.94;;;10.59;88.96
75455;BME280;64035;48.358;2.122;2022-12-29T03:58:56;99953.81;;;10.60;88.80
75455;BME280;64035;48.358;2.122;2022-12-29T04:00:46;99953.78;;;10.59;88.81
75455;BME280;64035;48.358;2.122;2022-12-29T04:02:24;99954.63;;;10.59;88.89
75455;BME280;64035;48.358;2.122;2022-12-29T04:04:04;99954.56;;;10.57;88.97
75455;BME280;64035;48.358;2.122;2022-12-29T04:05:42;99965.72;;;10.60;88.92
75455;BME280;64035;48.358;2.122;2022-12-29T04:07:20;99963.00;;;10.55;88.98
75455;BME280;64035;48.358;2.122;2022-12-29T04:08:59;99965.63;;;10.56;89.06
75455;BME280;64035;48.358;2.122;2022-12-29T04:10:37;99958.81;;;10.57;88.95
75455;BME280;64035;48.358;2.122;2022-12-29T04:12:17;99950.19;;;10.55;88.92
75455;BME280;64035;48.358;2.122;2022-12-29T04:13:55;99958.75;;;10.55;89.21
75455;BME280;64035;48.358;2.122;2022-12-29T04:15:36;99973.31;;;10.56;88.95
75455;BME280;64035;48.358;2.122;2022-12-29T04:17:14;99980.97;;;10.56;89.09
75455;BME280;64035;48.358;2.122;2022-12-29T04:18:53;99981.84;;;10.57;89.01
75455;BME280;64035;48.358;2.122;2022-12-29T04:20:32;99971.63;;;10.57;88.82
75455;BME280;64035;48.358;2.122;2022-12-29T04:22:32;99966.50;;;10.57;89.06
75455;BME280;64035;48.358;2.122;2022-12-29T04:24:09;99965.63;;;10.56;88.97
75455;BME280;64035;48.358;2.122;2022-12-29T04:25:52;99976.66;;;10.55;88.86
75455;BME280;64035;48.358;2.122;2022-12-29T04:27:30;99957.88;;;10.55;89.18
75455;BME280;64035;48.358;2.122;2022-12-29T04:29:40;99982.59;;;10.54;88.75
75455;BME280;64035;48.358;2.122;2022-12-29T04:31:43;99985.16;;;10.54;88.87
75455;BME280;64035;48.358;2.122;2022-12-29T04:33:21;99982.53;;;10.53;88.87
75455;BME280;64035;48.358;2.122;2022-12-29T04:35:00;99984.34;;;10.55;88.85
75455;BME280;64035;48.358;2.122;2022-12-29T04:36:39;99982.59;;;10.54;88.46
75455;BME280;64035;48.358;2.122;2022-12-29T04:38:17;99972.28;;;10.53;88.65
75455;BME280;64035;48.358;2.122;2022-12-29T04:39:56;99991.06;;;10.53;88.72
75455;BME280;64035;48.358;2.122;2022-12-29T04:41:34;99970.50;;;10.50;88.65
75455;BME280;64035;48.358;2.122;2022-12-29T04:43:13;99979.94;;;10.51;88.45
75455;BME280;64035;48.358;2.122;2022-12-29T04:45:11;99982.41;;;10.50;88.51
75455;BME280;64035;48.358;2.122;2022-12-29T04:47:16;99983.16;;;10.47;88.85
75455;BME280;64035;48.358;2.122;2022-12-29T04:49:04;99989.16;;;10.48;88.70
75455;BME280;64035;48.358;2.122;2022-12-29T04:51:11;99986.53;;;10.46;88.39
75455;BME280;64035;48.358;2.122;2022-12-29T04:52:51;99995.94;;;10.47;88.71
75455;BME280;64035;48.358;2.122;2022-12-29T04:54:29;99999.31;;;10.46;88.51
75455;BME280;64035;48.358;2.122;2022-12-29T04:56:17;100002.75;;;10.47;88.55
75455;BME280;64035;48.358;2.122;2022-12-29T04:57:56;100015.47;;;10.45;88.48
75455;BME280;64035;48.358;2.122;2022-12-29T04:59:34;100016.34;;;10.46;88.44
75455;BME280;64035;48.358;2.122;2022-12-29T05:01:12;100023.03;;;10.42;88.48
75455;BME280;64035;48.358;2.122;2022-12-29T05:02:51;100011.84;;;10.40;88.60
75455;BME280;64035;48.358;2.122;2022-12-29T05:04:29;100022.09;;;10.40;88.37
75455;BME280;64035;48.358;2.122;2022-12-29T05:06:07;100015.16;;;10.38;88.56
75455;BME280;64035;48.358;2.122;2022-12-29T05:07:46;100022.81;;;10.38;88.43
75455;BME280;64035;48.358;2.122;2022-12-29T05:09:24;100034.78;;;10.37;88.32
75455;BME280;64035;48.358;2.122;2022-12-29T05:11:02;100023.59;;;10.35;88.31
75455;BME280;64035;48.358;2.122;2022-12-29T05:12:40;100033.81;;;10.35;88.24
75455;BME280;64035;48.358;2.122;2022-12-29T05:14:18;100034.56;;;10.33;88.17
75455;BME280;64035;48.358;2.122;2022-12-29T05:15:57;100042.97;;;10.30;87.99
75455;BME280;64035;48.358;2.122;2022-12-29T05:17:36;100031.75;;;10.27;87.83
75455;BME280;64035;48.358;2.122;2022-12-29T05:19:15;100033.28;;;10.23;87.89
75455;BME280;64035;48.358;2.122;2022-12-29T05:20:54;100033.28;;;10.23;88.34
75455;BME280;64035;48.358;2.122;2022-12-29T05:22:34;100029.00;;;10.22;88.17
75455;BME280;64035;48.358;2.122;2022-12-29T05:24:12;100035.72;;;10.20;88.17
75455;BME280;64035;48.358;2.122;2022-12-29T05:25:50;100038.34;;;10.22;88.07
75455;BME280;64035;48.358;2.122;2022-12-29T05:27:32;100045.16;;;10.21;88.02
75455;BME280;64035;48.358;2.122;2022-12-29T05:29:29;100048.38;;;10.17;88.06
75455;BME280;64035;48.358;2.122;2022-12-29T05:31:07;100041.66;;;10.19;88.25
75455;BME280;64035;48.358;2.122;2022-12-29T05:32:46;100056.13;;;10.18;88.23
75455;BME280;64035;48.358;2.122;2022-12-29T05:34:24;100053.47;;;10.17;88.13
75455;BME280;64035;48.358;2.122;2022-12-29T05:36:07;100053.56;;;10.18;87.94
75455;BME280;64035;48.358;2.122;2022-12-29T05:37:47;100050.13;;;10.18;88.24
75455;BME280;64035;48.358;2.122;2022-12-29T05:39:25;100057.56;;;10.13;88.40
75455;BME280;64035;48.358;2.122;2022-12-29T05:41:08;100053.34;;;10.14;88.00
75455;BME280;64035;48.358;2.122;2022-12-29T05:42:58;100042.22;;;10.13;88.23
75455;BME280;64035;48.358;2.122;2022-12-29T05:44:47;100046.53;;;10.14;88.00
75455;BME280;64035;48.358;2.122;2022-12-29T05:46:34;100053.34;;;10.14;88.27
75455;BME280;64035;48.358;2.122;2022-12-29T05:48:22;100049.03;;;10.13;88.17
75455;BME280;64035;48.358;2.122;2022-12-29T05:50:35;100049.97;;;10.15;88.19
75455;BME280;64035;48.358;2.122;2022-12-29T05:52:27;100049.91;;;10.13;88.33
75455;BME280;64035;48.358;2.122;2022-12-29T05:54:05;100056.81;;;10.16;88.43
75455;BME280;64035;48.358;2.122;2022-12-29T05:55:46;100060.25;;;10.16;88.25
75455;BME280;64035;48.358;2.122;2022-12-29T05:57:25;100057.66;;;10.15;87.81
75455;BME280;64035;48.358;2.122;2022-12-29T05:59:12;100065.31;;;10.15;87.93
75455;BME280;64035;48.358;2.122;2022-12-29T06:00:51;100067.03;;;10.16;87.82
75455;BME280;64035;48.358;2.122;2022-12-29T06:02:29;100076.34;;;10.14;87.83
75455;BME280;64035;48.358;2.122;2022-12-29T06:04:07;100071.25;;;10.14;87.91
75455;BME280;64035;48.358;2.122;2022-12-29T06:05:46;100073.72;;;10.12;87.67
75455;BME280;64035;48.358;2.122;2022-12-29T06:07:25;100067.72;;;10.12;88.04
75455;BME280;64035;48.358;2.122;2022-12-29T06:09:04;100071.09;;;10.11;87.74
75455;BME280;64035;48.358;2.122;2022-12-29T06:10:42;100081.31;;;10.11;88.26
75455;BME280;64035;48.358;2.122;2022-12-29T06:12:21;100077.09;;;10.11;88.17
75455;BME280;64035;48.358;2.122;2022-12-29T06:14:01;100077.16;;;10.13;88.02
75455;BME280;64035;48.358;2.122;2022-12-29T06:15:39;100075.41;;;10.12;88.05
75455;BME280;64035;48.358;2.122;2022-12-29T06:17:19;100089.06;;;10.12;87.85
75455;BME280;64035;48.358;2.122;2022-12-29T06:18:57;100078.75;;;10.11;88.16
75455;BME280;64035;48.358;2.122;2022-12-29T06:20:36;100090.66;;;10.10;87.97
75455;BME280;64035;48.358;2.122;2022-12-29T06:22:16;100091.53;;;10.11;88.01
75455;BME280;64035;48.358;2.122;2022-12-29T06:23:54;100086.34;;;10.09;88.00
75455;BME280;64035;48.358;2.122;2022-12-29T06:25:32;100089.00;;;10.11;87.77
75455;BME280;64035;48.358;2.122;2022-12-29T06:27:11;100091.53;;;10.11;87.79
75455;BME280;64035;48.358;2.122;2022-12-29T06:28:50;100095.88;;;10.12;87.76
75455;BME280;64035;48.358;2.122;2022-12-29T06:30:28;100093.22;;;10.10;87.71
75455;BME280;64035;48.358;2.122;2022-12-29T06:32:07;100094.09;;;10.11;87.90
75455;BME280;64035;48.358;2.122;2022-12-29T06:33:45;100100.91;;;10.10;87.75
75455;BME280;64035;48.358;2.122;2022-12-29T06:35:23;100108.50;;;10.09;87.80
75455;BME280;64035;48.358;2.122;2022-12-29T06:37:03;100099.91;;;10.07;87.61
75455;BME280;64035;48.358;2.122;2022-12-29T06:38:41;100110.13;;;10.07;87.77
75455;BME280;64035;48.358;2.122;2022-12-29T06:40:19;100105.94;;;10.09;87.80
75455;BME280;64035;48.358;2.122;2022-12-29T06:42:21;100105.91;;;10.07;87.76
75455;BME280;64035;48.358;2.122;2022-12-29T06:44:22;100111.13;;;10.10;87.72
75455;BME280;64035;48.358;2.122;2022-12-29T06:46:02;100117.03;;;10.09;87.91
75455;BME280;64035;48.358;2.122;2022-12-29T06:47:40;100111.06;;;10.09;87.93
75455;BME280;64035;48.358;2.122;2022-12-29T06:49:18;100118.72;;;10.09;87.60
75455;BME280;64035;48.358;2.122;2022-12-29T06:50:56;100123.91;;;10.10;87.77
75455;BME280;64035;48.358;2.122;2022-12-29T06:52:34;100122.22;;;10.11;87.96
75455;BME280;64035;48.358;2.122;2022-12-29T06:54:13;100135.03;;;10.11;87.80
75455;BME280;64035;48.358;2.122;2022-12-29T06:55:51;100122.31;;;10.12;87.76
75455;BME280;64035;48.358;2.122;2022-12-29T06:57:30;100128.38;;;10.14;87.50
75455;BME280;64035;48.358;2.122;2022-12-29T06:59:09;100130.88;;;10.13;87.77
75455;BME280;64035;48.358;2.122;2022-12-29T07:00:47;100129.19;;;10.13;87.76
75455;BME280;64035;48.358;2.122;2022-12-29T07:02:26;100140.22;;;10.12;87.73
75455;BME280;64035;48.358;2.122;2022-12-29T07:04:04;100142.69;;;10.11;87.41
75455;BME280;64035;48.358;2.122;2022-12-29T07:05:43;100140.13;;;10.11;87.47
75455;BME280;64035;48.358;2.122;2022-12-29T07:07:20;100147.81;;;10.11;87.82
75455;BME280;64035;48.358;2.122;2022-12-29T07:08:58;100144.38;;;10.10;87.65
75455;BME280;64035;48.358;2.122;2022-12-29T07:10:37;100142.56;;;10.08;87.44
75455;BME280;64035;48.358;2.122;2022-12-29T07:12:15;100137.38;;;10.06;87.45
75455;BME280;64035;48.358;2.122;2022-12-29T07:13:53;100141.63;;;10.06;87.47
75455;BME280;64035;48.358;2.122;2022-12-29T07:15:31;100138.03;;;10.02;87.87
75455;BME280;64035;48.358;2.122;2022-12-29T07:17:09;100132.91;;;10.02;87.22
75455;BME280;64035;48.358;2.122;2022-12-29T07:18:47;100139.72;;;10.02;87.33
75455;BME280;64035;48.358;2.122;2022-12-29T07:20:26;100151.69;;;10.03;87.57
75455;BME280;64035;48.358;2.122;2022-12-29T07:22:04;100149.94;;;10.02;87.36
75455;BME280;64035;48.358;2.122;2022-12-29T07:23:43;100154.25;;;10.03;87.24
75455;BME280;64035;48.358;2.122;2022-12-29T07:25:21;100148.22;;;10.01;87.27
75455;BME280;64035;48.358;2.122;2022-12-29T07:26:59;100149.91;;;10.00;87.09
75455;BME280;64035;48.358;2.122;2022-12-29T07:28:37;100158.13;;;9.95;87.16
75455;BME280;64035;48.358;2.122;2022-12-29T07:30:16;100160.66;;;9.93;87.22
75455;BME280;64035;48.358;2.122;2022-12-29T07:31:54;100168.31;;;9.93;87.08
75455;BME280;64035;48.358;2.122;2022-12-29T07:33:32;100172.56;;;9.93;86.77
75455;BME280;64035;48.358;2.122;2022-12-29T07:35:11;100177.50;;;9.90;86.76
75455;BME280;64035;48.358;2.122;2022-12-29T07:36:48;100178.19;;;9.86;86.74
75455;BME280;64035;48.358;2.122;2022-12-29T07:38:26;100179.88;;;9.85;86.86
75455;BME280;64035;48.358;2.122;2022-12-29T07:40:05;100180.66;;;9.84;86.88
75455;BME280;64035;48.358;2.122;2022-12-29T07:41:43;100194.34;;;9.85;87.36
75455;BME280;64035;48.358;2.122;2022-12-29T07:43:28;100182.19;;;9.80;87.41
75455;BME280;64035;48.358;2.122;2022-12-29T07:45:26;100189.13;;;9.83;87.10
75455;BME280;64035;48.358;2.122;2022-12-29T07:47:20;100196.13;;;9.87;87.23
75455;BME280;64035;48.358;2.122;2022-12-29T07:48:58;100196.81;;;9.83;87.03
75455;BME280;64035;48.358;2.122;2022-12-29T07:50:36;100197.59;;;9.82;86.94
75455;BME280;64035;48.358;2.122;2022-12-29T07:52:15;100200.97;;;9.81;87.25
75455;BME280;64035;48.358;2.122;2022-12-29T07:53:53;100201.72;;;9.78;87.05
75455;BME280;64035;48.358;2.122;2022-12-29T07:55:30;100205.06;;;9.77;86.91
75455;BME280;64035;48.358;2.122;2022-12-29T07:57:08;100212.75;;;9.77;86.99
75455;BME280;64035;48.358;2.122;2022-12-29T07:58:46;100207.63;;;9.77;86.93
75455;BME280;64035;48.358;2.122;2022-12-29T08:00:24;100209.31;;;9.77;87.06
75455;BME280;64035;48.358;2.122;2022-12-29T08:02:03;100210.97;;;9.76;86.87
75455;BME280;64035;48.358;2.122;2022-12-29T08:03:42;100215.22;;;9.76;86.76
75455;BME280;64035;48.358;2.122;2022-12-29T08:05:20;100208.44;;;9.76;87.15
75455;BME280;64035;48.358;2.122;2022-12-29T08:06:58;100200.75;;;9.76;87.13
75455;BME280;64035;48.358;2.122;2022-12-29T08:08:36;100208.44;;;9.76;87.12
75455;BME280;64035;48.358;2.122;2022-12-29T08:10:14;100201.63;;;9.77;86.88
75455;BME280;64035;48.358;2.122;2022-12-29T08:11:53;100216.19;;;9.78;87.03
75455;BME280;64035;48.358;2.122;2022-12-29T08:13:32;100211.78;;;9.75;87.05
75455;BME280;64035;48.358;2.122;2022-12-29T08:15:11;100222.88;;;9.76;87.42
75455;BME280;64035;48.358;2.122;2022-12-29T08:16:50;100226.31;;;9.76;87.15
75455;BME280;64035;48.358;2.122;2022-12-29T08:18:28;100213.53;;;9.76;87.22
75455;BME280;64035;48.358;2.122;2022-12-29T08:20:06;100215.22;;;9.76;87.04
75455;BME280;64035;48.358;2.122;2022-12-29T08:21:45;100218.50;;;9.73;87.16
75455;BME280;64035;48.358;2.122;2022-12-29T08:23:23;100219.44;;;9.75;87.27
75455;BME280;64035;48.358;2.122;2022-12-29T08:25:01;100223.69;;;9.75;87.00
75455;BME280;64035;48.358;2.122;2022-12-29T08:26:39;100232.16;;;9.74;86.84
75455;BME280;64035;48.358;2.122;2022-12-29T08:28:17;100228.66;;;9.72;87.01
75455;BME280;64035;48.358;2.122;2022-12-29T08:29:55;100226.84;;;9.69;87.18
75455;BME280;64035;48.358;2.122;2022-12-29T08:31:33;100236.25;;;9.70;87.37
75455;BME280;64035;48.358;2.122;2022-12-29T08:33:11;100231.06;;;9.69;87.21
75455;BME280;64035;48.358;2.122;2022-12-29T08:34:49;100227.63;;;9.68;87.49
75455;BME280;64035;48.358;2.122;2022-12-29T08:36:27;100237.84;;;9.68;87.29
75455;BME280;64035;48.358;2.122;2022-12-29T08:38:05;100232.75;;;9.68;87.17
75455;BME280;64035;48.358;2.122;2022-12-29T08:39:43;100230.19;;;9.68;87.20
75455;BME280;64035;48.358;2.122;2022-12-29T08:41:21;100233.53;;;9.67;87.29
75455;BME280;64035;48.358;2.122;2022-12-29T08:43:00;100229.22;;;9.66;87.45
75455;BME280;64035;48.358;2.122;2022-12-29T08:44:39;100241.28;;;9.69;87.19
75455;BME280;64035;48.358;2.122;2022-12-29T08:46:17;100233.69;;;9.70;87.27
75455;BME280;64035;48.358;2.122;2022-12-29T08:47:55;100238.88;;;9.72;87.02
75455;BME280;64035;48.358;2.122;2022-12-29T08:49:33;100237.94;;;9.70;87.37
75455;BME280;64035;48.358;2.122;2022-12-29T08:51:11;100246.41;;;9.69;87.14
75455;BME280;64035;48.358;2.122;2022-12-29T08:52:50;100256.63;;;9.69;87.23
75455;BME280;64035;48.358;2.122;2022-12-29T08:54:28;100248.06;;;9.68;87.04
75455;BME280;64035;48.358;2.122;2022-12-29T08:56:08;100249.66;;;9.66;86.95
75455;BME280;64035;48.358;2.122;2022-12-29T08:57:55;100263.41;;;9.68;87.30
75455;BME280;64035;48.358;2.122;2022-12-29T08:59:35;100258.28;;;9.68;86.88
75455;BME280;64035;48.358;2.122;2022-12-29T09:01:14;100265.09;;;9.68;86.92
75455;BME280;64035;48.358;2.122;2022-12-29T09:02:52;100273.53;;;9.67;86.87
75455;BME280;64035;48.358;2.122;2022-12-29T09:04:30;100286.31;;;9.67;86.78
75455;BME280;64035;48.358;2.122;2022-12-29T09:06:08;100283.69;;;9.65;87.04
75455;BME280;64035;48.358;2.122;2022-12-29T09:07:47;100286.19;;;9.64;87.29
75455;BME280;64035;48.358;2.122;2022-12-29T09:09:25;100287.88;;;9.63;87.28
75455;BME280;64035;48.358;2.122;2022-12-29T09:11:16;100290.44;;;9.63;86.88
75455;BME280;64035;48.358;2.122;2022-12-29T09:12:54;100296.47;;;9.65;87.21
75455;BME280;64035;48.358;2.122;2022-12-29T09:14:33;100298.22;;;9.66;87.11
75455;BME280;64035;48.358;2.122;2022-12-29T09:16:11;100293.13;;;9.66;87.17
75455;BME280;64035;48.358;2.122;2022-12-29T09:17:49;100298.31;;;9.68;86.92
75455;BME280;64035;48.358;2.122;2022-12-29T09:19:27;100292.41;;;9.69;86.53
75455;BME280;64035;48.358;2.122;2022-12-29T09:21:07;100289.75;;;9.67;86.78
75455;BME280;64035;48.358;2.122;2022-12-29T09:22:45;100296.63;;;9.68;86.70
75455;BME280;64035;48.358;2.122;2022-12-29T09:24:24;100296.63;;;9.68;87.01
75455;BME280;64035;48.358;2.122;2022-12-29T09:26:03;100291.53;;;9.68;87.38
75455;BME280;64035;48.358;2.122;2022-12-29T09:27:41;100301.03;;;9.71;86.99
75455;BME280;64035;48.358;2.122;2022-12-29T09:29:19;100291.72;;;9.73;86.69
75455;BME280;64035;48.358;2.122;2022-12-29T09:30:58;100292.59;;;9.73;87.03
75455;BME280;64035;48.358;2.122;2022-12-29T09:32:36;100303.78;;;9.75;86.72